Time;durP1;ratioP1;P1;durP2;ratioP2;P2;SDS_P1;SDS_P2;PMS_P1;PMS_P2;Temp;Humidity;BMP_temperature;BMP_pressure;BME280_temperature;BME280_humidity;BME280_pressure;Samples;Min_cycle;Max_cycle;Signal;HPM_P1;HPM_P2
2021/11/18 00:01:14;;;;;;;20.50;5.22;;;7.30;99.90;;;;;;5065811;28;20093;-70
2021/11/18 00:03:40;;;;;;;19.27;5.60;;;7.30;99.90;;;;;;5065298;28;20134;-70
2021/11/18 00:06:06;;;;;;;22.67;5.90;;;7.30;99.90;;;;;;5074472;28;20546;-71
2021/11/18 00:08:32;;;;;;;21.55;5.20;;;7.30;99.90;;;;;;5055549;28;20055;-71
2021/11/18 00:11:01;;;;;;;24.55;6.38;;;7.30;99.90;;;;;;5068459;28;20784;-70
2021/11/18 00:13:33;;;;;;;22.25;6.07;;;7.30;99.90;;;;;;5073821;28;20749;-71
2021/11/18 00:16:00;;;;;;;22.73;6.20;;;7.30;99.90;;;;;;5055336;28;20048;-71
2021/11/18 00:18:29;;;;;;;20.38;5.82;;;7.30;99.90;;;;;;5052491;28;20437;-70
2021/11/18 00:20:58;;;;;;;20.73;6.30;;;7.30;99.90;;;;;;5059813;28;20310;-70
2021/11/18 00:23:29;;;;;;;23.13;5.82;;;7.30;99.90;;;;;;5048662;28;20052;-71
2021/11/18 00:25:55;;;;;;;21.95;5.47;;;7.30;99.90;;;;;;5064971;28;20044;-71
2021/11/18 00:28:21;;;;;;;24.27;5.75;;;7.30;99.90;;;;;;5035310;28;20044;-71
2021/11/18 00:30:47;;;;;;;22.75;6.15;;;7.30;99.90;;;;;;5066161;28;20055;-70
2021/11/18 00:33:14;;;;;;;19.58;5.60;;;7.30;99.90;;;;;;5052176;28;20498;-71
2021/11/18 00:35:43;;;;;;;20.65;5.60;;;7.30;99.90;;;;;;5075884;28;20040;-70
2021/11/18 00:38:09;;;;;;;29.27;6.97;;;7.40;99.90;;;;;;5078981;28;20032;-70
2021/11/18 00:40:39;;;;;;;26.33;6.35;;;7.50;99.90;;;;;;5069019;28;20098;-71
2021/11/18 00:43:07;;;;;;;21.42;6.15;;;7.50;99.90;;;;;;5073330;28;20150;-70
2021/11/18 00:45:34;;;;;;;19.88;6.22;;;7.50;99.90;;;;;;5071108;28;20498;-71
2021/11/18 00:48:01;;;;;;;23.60;6.50;;;7.50;99.90;;;;;;5067508;28;20429;-70
2021/11/18 00:50:31;;;;;;;20.60;6.80;;;7.60;99.90;;;;;;5053779;28;20055;-70
2021/11/18 00:52:57;;;;;;;22.58;5.85;;;7.60;99.90;;;;;;5073057;28;20557;-71
2021/11/18 00:55:26;;;;;;;19.58;5.88;;;7.60;99.90;;;;;;5065702;28;20101;-71
2021/11/18 00:57:51;;;;;;;17.83;6.30;;;7.70;99.90;;;;;;5056475;28;20051;-70
2021/11/18 01:00:25;;;;;;;20.83;6.38;;;7.70;99.90;;;;;;5077763;28;20045;-71
2021/11/18 01:02:51;;;;;;;27.77;7.88;;;7.80;99.90;;;;;;5067183;28;20048;-70
2021/11/18 01:05:20;;;;;;;21.45;6.63;;;7.80;99.90;;;;;;5054990;28;20049;-71
2021/11/18 01:07:46;;;;;;;20.27;6.57;;;7.80;99.90;;;;;;5048849;28;20570;-71
2021/11/18 01:10:14;;;;;;;21.05;6.63;;;7.80;99.90;;;;;;5064686;28;20040;-70
2021/11/18 01:12:40;;;;;;;20.08;6.50;;;7.80;99.90;;;;;;5078367;28;20044;-71
2021/11/18 01:15:13;;;;;;;21.05;6.82;;;7.70;99.90;;;;;;5056012;28;20040;-70
2021/11/18 01:17:39;;;;;;;22.20;7.03;;;7.70;99.90;;;;;;5066398;28;20048;-71
2021/11/18 01:20:07;;;;;;;23.30;7.22;;;7.70;99.90;;;;;;5073955;28;20044;-71
2021/11/18 01:22:33;;;;;;;18.63;6.60;;;7.70;99.90;;;;;;5085021;28;20083;-71
2021/11/18 01:25:00;;;;;;;20.52;7.47;;;7.60;99.90;;;;;;5068926;28;20407;-71
2021/11/18 01:27:25;;;;;;;28.95;8.35;;;7.60;99.90;;;;;;5060661;28;20044;-71
2021/11/18 01:29:52;;;;;;;22.33;6.82;;;7.60;99.90;;;;;;5049474;28;20046;-71
2021/11/18 01:32:18;;;;;;;25.98;7.82;;;7.60;99.90;;;;;;5052723;28;20080;-71
2021/11/18 01:34:43;;;;;;;28.08;7.97;;;7.60;99.90;;;;;;5070058;28;20122;-70
2021/11/18 01:37:10;;;;;;;27.85;7.65;;;7.60;99.90;;;;;;5067662;28;20040;-70
2021/11/18 01:39:35;;;;;;;28.35;8.00;;;7.60;99.90;;;;;;5058732;28;20568;-70
2021/11/18 01:42:01;;;;;;;31.15;8.50;;;7.60;99.90;;;;;;5050307;28;20064;-70
2021/11/18 01:44:36;;;;;;;23.73;8.00;;;7.60;99.90;;;;;;5035599;28;20109;-71
2021/11/18 01:47:04;;;;;;;22.25;8.18;;;7.60;99.90;;;;;;5060842;28;20055;-71
2021/11/18 01:49:31;;;;;;;23.08;7.45;;;7.60;99.90;;;;;;5059294;28;20044;-71
2021/11/18 01:52:00;;;;;;;23.90;7.68;;;7.50;99.90;;;;;;5081609;28;20048;-71
2021/11/18 01:54:30;;;;;;;26.17;7.80;;;7.50;99.90;;;;;;5053085;28;20044;-71
2021/11/18 01:56:58;;;;;;;27.00;7.82;;;7.50;99.90;;;;;;5083997;28;20040;-71
2021/11/18 01:59:33;;;;;;;28.30;8.63;;;7.50;99.90;;;;;;5052718;28;20082;-71
2021/11/18 02:02:00;;;;;;;24.45;8.50;;;7.60;99.90;;;;;;5083754;28;20037;-72
2021/11/18 02:04:29;;;;;;;32.22;9.10;;;7.60;99.90;;;;;;5065369;28;20047;-70
2021/11/18 02:07:06;;;;;;;25.60;9.35;;;7.60;99.90;;;;;;5057712;28;20120;-71
2021/11/18 02:09:41;;;;;;;30.25;9.05;;;7.60;99.90;;;;;;5075660;28;20507;-71
2021/11/18 02:12:13;;;;;;;31.08;9.48;;;7.70;99.90;;;;;;5081053;28;20040;-71
2021/11/18 02:14:40;;;;;;;26.60;8.48;;;7.70;99.90;;;;;;5056547;28;20044;-71
2021/11/18 02:17:10;;;;;;;25.38;8.45;;;7.70;99.90;;;;;;5082859;28;20051;-71
2021/11/18 02:19:40;;;;;;;27.65;8.43;;;7.70;99.90;;;;;;5080839;28;20044;-71
2021/11/18 02:22:07;;;;;;;29.02;8.93;;;7.80;99.90;;;;;;5077195;28;20088;-70
2021/11/18 02:24:41;;;;;;;33.90;9.95;;;7.80;99.90;;;;;;5073293;28;20056;-71
2021/11/18 02:27:08;;;;;;;28.45;9.02;;;7.80;99.90;;;;;;5068568;28;20520;-71
2021/11/18 02:29:34;;;;;;;40.25;11.27;;;7.80;99.90;;;;;;5058278;28;20072;-71
2021/11/18 02:32:04;;;;;;;27.98;9.20;;;7.80;99.90;;;;;;5050532;28;20122;-70
2021/11/18 02:34:48;;;;;;;28.52;9.30;;;7.80;99.90;;;;;;5072439;28;20178;-72
2021/11/18 02:37:15;;;;;;;26.88;10.10;;;7.80;99.90;;;;;;5061770;28;20067;-72
2021/11/18 02:39:43;;;;;;;28.85;9.90;;;7.90;99.90;;;;;;5079959;28;20494;-72
2021/11/18 02:42:10;;;;;;;30.98;9.73;;;7.90;99.90;;;;;;5075174;28;20043;-70
2021/11/18 02:44:36;;;;;;;26.17;10.00;;;7.90;99.90;;;;;;5066540;28;20037;-70
2021/11/18 02:47:06;;;;;;;25.77;9.65;;;7.90;99.90;;;;;;5077548;28;20040;-70
2021/11/18 02:49:34;;;;;;;30.40;10.95;;;8.00;99.90;;;;;;5064785;28;20048;-70
2021/11/18 02:52:00;;;;;;;29.40;9.90;;;8.00;99.90;;;;;;5068651;28;20036;-71
2021/11/18 02:54:25;;;;;;;30.27;9.70;;;8.00;99.90;;;;;;5058900;28;20046;-70
2021/11/18 02:56:52;;;;;;;34.50;11.35;;;8.00;99.90;;;;;;5051447;28;20097;-70
2021/11/18 02:59:19;;;;;;;34.80;9.77;;;8.00;99.90;;;;;;5036857;28;20032;-71
2021/11/18 03:01:46;;;;;;;35.75;10.98;;;8.10;99.90;;;;;;5033203;28;20043;-71
2021/11/18 03:04:14;;;;;;;29.20;11.23;;;8.00;99.90;;;;;;5079666;28;20055;-70
2021/11/18 03:06:42;;;;;;;31.80;10.98;;;8.10;99.90;;;;;;5063866;28;20044;-70
2021/11/18 03:09:09;;;;;;;30.30;10.80;;;8.00;99.90;;;;;;5070135;28;20041;-70
2021/11/18 03:11:35;;;;;;;33.40;11.00;;;8.10;99.90;;;;;;5060504;28;20383;-70
2021/11/18 03:14:02;;;;;;;34.33;10.68;;;8.00;99.90;;;;;;5071635;28;20036;-70
2021/11/18 03:16:31;;;;;;;31.48;10.85;;;8.00;99.90;;;;;;5079175;28;20056;-70
2021/11/18 03:18:57;;;;;;;24.77;10.27;;;8.00;99.90;;;;;;5059477;28;20155;-70
2021/11/18 03:21:27;;;;;;;34.67;11.70;;;8.00;99.90;;;;;;5052672;28;20115;-70
2021/11/18 03:23:53;;;;;;;29.53;10.60;;;8.00;99.90;;;;;;5060921;28;20044;-70
2021/11/18 03:26:22;;;;;;;24.67;9.80;;;8.00;99.90;;;;;;5070846;28;20036;-70
2021/11/18 03:28:48;;;;;;;29.00;10.48;;;8.00;99.90;;;;;;5058804;28;20047;-70
2021/11/18 03:31:15;;;;;;;24.48;10.48;;;8.00;99.90;;;;;;5068682;28;20047;-70
2021/11/18 03:33:51;;;;;;;28.75;10.88;;;8.00;99.90;;;;;;5066206;28;20044;-71
2021/11/18 03:36:19;;;;;;;29.13;11.25;;;8.00;99.90;;;;;;5071833;28;20131;-70
2021/11/18 03:38:45;;;;;;;28.70;11.13;;;8.00;99.90;;;;;;5054229;28;20139;-71
2021/11/18 03:41:11;;;;;;;34.83;11.88;;;8.00;99.90;;;;;;5079893;28;20605;-70
2021/11/18 03:43:56;;;;;;;28.10;10.48;;;7.90;99.90;;;;;;5066210;28;20494;-70
2021/11/18 03:46:25;;;;;;;33.20;11.02;;;8.00;99.90;;;;;;5066768;28;20040;-70
2021/11/18 03:48:52;;;;;;;32.38;12.23;;;7.90;99.90;;;;;;5055879;28;20036;-70
2021/11/18 03:51:18;;;;;;;31.17;11.07;;;8.00;99.90;;;;;;5079759;28;20044;-71
2021/11/18 03:53:44;;;;;;;33.58;11.07;;;8.00;99.90;;;;;;5077354;28;20529;-70
2021/11/18 03:56:21;;;;;;;25.90;10.95;;;8.00;99.90;;;;;;5052941;28;20066;-70
2021/11/18 03:58:47;;;;;;;32.60;10.10;;;8.00;99.90;;;;;;5069775;28;20044;-71
2021/11/18 04:01:14;;;;;;;30.35;11.20;;;8.00;99.90;;;;;;5076159;28;20128;-70
2021/11/18 04:03:40;;;;;;;28.42;10.27;;;8.00;99.90;;;;;;5057360;28;20040;-70
2021/11/18 04:06:07;;;;;;;25.52;9.43;;;8.00;99.90;;;;;;5072957;28;20040;-71
2021/11/18 04:08:33;;;;;;;27.80;11.40;;;8.00;99.90;;;;;;5079811;28;20196;-70
2021/11/18 04:10:59;;;;;;;29.65;9.88;;;8.00;99.90;;;;;;5067581;28;20775;-70
2021/11/18 04:13:25;;;;;;;31.10;10.00;;;8.00;99.90;;;;;;5041050;28;20044;-71
2021/11/18 04:15:51;;;;;;;33.70;9.73;;;8.10;99.90;;;;;;5064405;28;20047;-71
2021/11/18 04:18:22;;;;;;;32.90;10.18;;;8.10;99.90;;;;;;5076717;28;20055;-70
2021/11/18 04:20:50;;;;;;;27.02;10.15;;;8.10;99.90;;;;;;5047486;28;20055;-70
2021/11/18 04:23:18;;;;;;;27.58;10.20;;;8.10;99.90;;;;;;5077016;28;20055;-70
2021/11/18 04:25:44;;;;;;;33.47;9.35;;;8.10;99.90;;;;;;5078722;28;20130;-70
2021/11/18 04:28:11;;;;;;;40.40;10.43;;;8.10;99.90;;;;;;5070767;28;20032;-71
2021/11/18 04:30:45;;;;;;;33.70;10.13;;;8.10;99.90;;;;;;5066971;28;20048;-71
2021/11/18 04:33:14;;;;;;;33.13;10.38;;;8.10;99.90;;;;;;5081487;28;20179;-70
2021/11/18 04:35:41;;;;;;;31.85;8.68;;;8.10;99.90;;;;;;5058161;28;20043;-71
2021/11/18 04:38:07;;;;;;;29.83;9.48;;;8.10;99.90;;;;;;5069947;28;20579;-70
2021/11/18 04:40:34;;;;;;;29.50;9.77;;;8.20;99.90;;;;;;5064448;28;20080;-70
2021/11/18 04:43:01;;;;;;;30.17;10.50;;;8.20;99.90;;;;;;5066020;28;20048;-70
2021/11/18 04:45:27;;;;;;;31.92;9.85;;;8.20;99.90;;;;;;5057360;28;20048;-70
2021/11/18 04:47:53;;;;;;;32.17;8.85;;;8.20;99.90;;;;;;5046056;28;20039;-70
2021/11/18 04:50:21;;;;;;;24.92;8.95;;;8.20;99.90;;;;;;5045423;28;20794;-70
2021/11/18 04:52:47;;;;;;;27.75;9.07;;;8.20;99.90;;;;;;5082051;28;20047;-70
2021/11/18 04:55:16;;;;;;;32.92;10.32;;;8.20;99.90;;;;;;5046842;28;20078;-70
2021/11/18 04:57:42;;;;;;;30.02;9.52;;;8.20;99.90;;;;;;5063805;28;20072;-70
2021/11/18 05:00:18;;;;;;;27.58;9.68;;;8.20;99.90;;;;;;5047242;28;20121;-70
2021/11/18 05:02:45;;;;;;;25.23;8.98;;;8.20;99.90;;;;;;5080019;28;20055;-70
2021/11/18 05:05:12;;;;;;;32.35;9.02;;;8.20;99.90;;;;;;5070019;28;20113;-70
2021/11/18 05:07:37;;;;;;;30.13;9.65;;;8.20;99.90;;;;;;5067265;28;20058;-70
2021/11/18 05:10:05;;;;;;;32.63;9.90;;;8.20;99.90;;;;;;5059712;28;20404;-70
2021/11/18 05:12:31;;;;;;;29.50;9.73;;;8.20;99.90;;;;;;5047834;28;20041;-73
2021/11/18 05:14:57;;;;;;;33.22;9.70;;;8.20;99.90;;;;;;5066822;28;20047;-70
2021/11/18 05:17:23;;;;;;;31.02;10.35;;;8.30;99.90;;;;;;5066724;28;20052;-70
2021/11/18 05:19:49;;;;;;;31.58;9.48;;;8.30;99.90;;;;;;5055720;28;20054;-70
2021/11/18 05:22:15;;;;;;;28.80;9.30;;;8.30;99.90;;;;;;5053847;28;20449;-70
2021/11/18 05:24:41;;;;;;;26.77;9.23;;;8.20;99.90;;;;;;5056364;28;20036;-70
2021/11/18 05:27:07;;;;;;;31.40;10.70;;;8.20;99.90;;;;;;5081369;28;20550;-70
2021/11/18 05:29:33;;;;;;;27.50;10.15;;;8.20;99.90;;;;;;5074925;28;20495;-70
2021/11/18 05:32:00;;;;;;;33.65;9.13;;;8.30;99.90;;;;;;5086556;28;20044;-70
2021/11/18 05:34:26;;;;;;;33.63;10.00;;;8.20;99.90;;;;;;5076411;28;20044;-70
2021/11/18 05:36:51;;;;;;;30.45;9.85;;;8.20;99.90;;;;;;5074536;28;20056;-70
2021/11/18 05:39:17;;;;;;;30.65;9.25;;;8.30;99.90;;;;;;5036392;28;20040;-70
2021/11/18 05:41:43;;;;;;;27.40;9.25;;;8.30;99.90;;;;;;5066089;28;20068;-70
2021/11/18 05:44:09;;;;;;;37.78;10.00;;;8.30;99.90;;;;;;5074459;28;20063;-70
2021/11/18 05:46:36;;;;;;;26.88;9.18;;;8.30;99.90;;;;;;5060835;28;20053;-70
2021/11/18 05:49:04;;;;;;;31.10;8.77;;;8.30;99.90;;;;;;5065913;28;20109;-70
2021/11/18 05:51:30;;;;;;;31.02;9.70;;;8.30;99.90;;;;;;5056805;28;20097;-70
2021/11/18 05:53:55;;;;;;;30.65;8.38;;;8.30;99.90;;;;;;5077850;28;20044;-70
2021/11/18 05:56:25;;;;;;;26.83;10.05;;;8.30;99.90;;;;;;5069673;28;20040;-71
2021/11/18 05:58:53;;;;;;;27.23;8.80;;;8.30;99.90;;;;;;5066475;28;20063;-71
2021/11/18 06:01:24;;;;;;;27.83;9.20;;;8.30;99.90;;;;;;5076014;28;20825;-71
2021/11/18 06:03:50;;;;;;;30.52;8.98;;;8.20;99.90;;;;;;5067740;28;20626;-70
2021/11/18 06:06:16;;;;;;;26.02;8.55;;;8.30;99.90;;;;;;5038867;28;20044;-71
2021/11/18 06:08:42;;;;;;;27.88;8.48;;;8.30;99.90;;;;;;5066029;28;20670;-70
2021/11/18 06:11:09;;;;;;;26.05;8.80;;;8.30;99.90;;;;;;5069536;28;20109;-70
2021/11/18 06:13:35;;;;;;;25.23;9.55;;;8.20;99.90;;;;;;5082947;28;20083;-70
2021/11/18 06:16:02;;;;;;;29.58;9.70;;;8.30;99.90;;;;;;5050709;28;20499;-70
2021/11/18 06:18:29;;;;;;;25.73;8.20;;;8.30;99.90;;;;;;5071309;28;20314;-70
2021/11/18 06:20:54;;;;;;;26.83;8.75;;;8.30;99.90;;;;;;5051081;28;20036;-70
2021/11/18 06:23:21;;;;;;;28.90;8.85;;;8.30;99.90;;;;;;5055845;28;20052;-70
2021/11/18 06:25:48;;;;;;;29.75;9.40;;;8.30;99.90;;;;;;5079048;28;20047;-70
2021/11/18 06:28:15;;;;;;;28.60;9.57;;;8.40;99.90;;;;;;5056448;28;20584;-70
2021/11/18 06:30:56;;;;;;;30.95;9.13;;;8.30;99.90;;;;;;5068499;28;20513;-70
2021/11/18 06:33:22;;;;;;;32.67;9.77;;;8.30;99.90;;;;;;5051599;28;20129;-70
2021/11/18 06:35:51;;;;;;;26.65;8.77;;;8.30;99.90;;;;;;5067155;28;20407;-70
2021/11/18 06:38:17;;;;;;;32.95;9.40;;;8.30;99.90;;;;;;5070627;28;20071;-70
2021/11/18 06:40:51;;;;;;;25.05;9.27;;;8.30;99.90;;;;;;5051479;28;20046;-69
2021/11/18 06:43:21;;;;;;;30.95;9.73;;;8.30;99.90;;;;;;5065819;28;20133;-70
2021/11/18 06:45:47;;;;;;;30.50;9.35;;;8.30;99.90;;;;;;5035319;28;20055;-70
2021/11/18 06:48:19;;;;;;;26.83;9.57;;;8.30;99.90;;;;;;5068195;28;20052;-69
2021/11/18 06:50:46;;;;;;;24.73;8.60;;;8.30;99.90;;;;;;5069902;28;20072;-70
2021/11/18 06:53:13;;;;;;;24.13;8.73;;;8.30;99.90;;;;;;5056347;28;20054;-71
2021/11/18 06:55:39;;;;;;;27.98;9.15;;;8.30;99.90;;;;;;5066527;28;20059;-71
2021/11/18 06:58:05;;;;;;;29.92;9.55;;;8.30;99.90;;;;;;5049957;28;20043;-70
2021/11/18 07:00:31;;;;;;;27.98;9.20;;;8.20;99.90;;;;;;5049368;28;20133;-70
2021/11/18 07:02:57;;;;;;;27.58;9.95;;;8.30;99.90;;;;;;5053127;28;20495;-70
2021/11/18 07:05:24;;;;;;;26.70;9.50;;;8.30;99.90;;;;;;5048613;28;20043;-71
2021/11/18 07:07:51;;;;;;;34.33;10.15;;;8.40;99.90;;;;;;5042827;28;20140;-71
2021/11/18 07:10:17;;;;;;;27.75;9.48;;;8.30;99.90;;;;;;5050914;28;20526;-71
2021/11/18 07:12:43;;;;;;;29.42;9.15;;;8.30;99.90;;;;;;5062518;28;20048;-70
2021/11/18 07:15:12;;;;;;;30.67;9.43;;;8.30;99.90;;;;;;5065636;28;20051;-71
2021/11/18 07:17:37;;;;;;;20.30;8.30;;;8.30;99.90;;;;;;5057069;28;20135;-71
2021/11/18 07:20:05;;;;;;;23.13;8.35;;;8.30;99.90;;;;;;5048320;28;20123;-71
2021/11/18 07:22:31;;;;;;;27.40;8.05;;;8.30;99.90;;;;;;5056196;28;20279;-71
2021/11/18 07:24:58;;;;;;;26.40;8.57;;;8.30;99.90;;;;;;5065010;28;20450;-71
2021/11/18 07:27:24;;;;;;;28.50;8.65;;;8.30;99.90;;;;;;5048559;28;20040;-70
2021/11/18 07:29:50;;;;;;;24.25;9.02;;;8.30;99.90;;;;;;5064540;28;20043;-71
2021/11/18 07:32:17;;;;;;;26.50;8.38;;;8.40;99.90;;;;;;5064327;28;20046;-70
2021/11/18 07:34:43;;;;;;;29.10;7.57;;;8.40;99.90;;;;;;5051224;28;20413;-71
2021/11/18 07:37:09;;;;;;;28.30;8.10;;;8.40;99.90;;;;;;5071857;28;20032;-71
2021/11/18 07:39:35;;;;;;;29.23;8.68;;;8.40;99.90;;;;;;5076510;28;20402;-71
2021/11/18 07:42:01;;;;;;;29.65;8.60;;;8.40;99.90;;;;;;5062565;28;20522;-70
2021/11/18 07:44:26;;;;;;;25.33;8.05;;;8.40;99.90;;;;;;5036151;28;20453;-71
2021/11/18 07:46:52;;;;;;;27.70;8.73;;;8.40;99.90;;;;;;5035101;28;20137;-71
2021/11/18 07:49:18;;;;;;;29.73;8.98;;;8.40;99.90;;;;;;5064164;28;20041;-71
2021/11/18 07:51:44;;;;;;;30.17;8.95;;;8.40;99.90;;;;;;5047251;28;20376;-71
2021/11/18 07:54:13;;;;;;;22.48;8.40;;;8.40;99.90;;;;;;5049476;28;20411;-71
2021/11/18 07:56:40;;;;;;;30.98;9.35;;;8.40;99.90;;;;;;5066149;28;20070;-72
2021/11/18 07:59:08;;;;;;;24.70;8.13;;;8.40;99.90;;;;;;5069849;28;20040;-71
2021/11/18 08:01:34;;;;;;;22.60;7.43;;;8.40;99.90;;;;;;5050507;28;20048;-79
2021/11/18 08:04:00;;;;;;;26.52;7.28;;;8.40;99.90;;;;;;5048260;28;20436;-80
2021/11/18 08:06:28;;;;;;;28.90;8.38;;;8.50;99.90;;;;;;5059616;28;20498;-80
2021/11/18 08:08:55;;;;;;;23.48;7.47;;;8.50;99.90;;;;;;5068841;28;20094;-80
2021/11/18 08:11:29;;;;;;;23.25;7.22;;;8.50;99.90;;;;;;5066608;28;20072;-80
2021/11/18 08:13:56;;;;;;;30.00;7.88;;;8.60;99.90;;;;;;5067571;28;20056;-80
2021/11/18 08:16:22;;;;;;;27.75;8.27;;;8.60;99.90;;;;;;5055300;28;20044;-78
2021/11/18 08:18:47;;;;;;;23.63;8.27;;;8.60;99.90;;;;;;5048672;28;20047;-80
2021/11/18 08:21:14;;;;;;;26.67;7.85;;;8.60;99.90;;;;;;5069095;28;20044;-79
2021/11/18 08:23:40;;;;;;;28.80;7.53;;;8.60;99.90;;;;;;5053401;28;20328;-79
2021/11/18 08:26:10;;;;;;;26.90;7.53;;;8.70;99.90;;;;;;5047902;28;20032;-79
2021/11/18 08:28:35;;;;;;;23.88;6.78;;;8.70;99.90;;;;;;5072118;28;20043;-78
2021/11/18 08:31:02;;;;;;;23.52;6.80;;;8.80;99.90;;;;;;5064521;28;20600;-79
2021/11/18 08:33:30;;;;;;;24.20;7.38;;;8.80;99.90;;;;;;5072015;28;20056;-79
2021/11/18 08:35:56;;;;;;;22.58;7.15;;;8.80;99.90;;;;;;5060291;28;20047;-79
2021/11/18 08:38:23;;;;;;;25.90;6.57;;;8.90;99.90;;;;;;5073711;28;20137;-80
2021/11/18 08:40:56;;;;;;;21.52;6.85;;;8.90;99.90;;;;;;5048889;28;20097;-72
2021/11/18 08:43:23;;;;;;;25.00;6.78;;;8.90;99.90;;;;;;5047817;28;20414;-71
2021/11/18 08:45:50;;;;;;;22.33;7.45;;;9.00;99.90;;;;;;5059963;28;20059;-72
2021/11/18 08:48:16;;;;;;;24.23;6.65;;;9.00;99.90;;;;;;5071539;28;20049;-72
2021/11/18 08:50:45;;;;;;;24.27;6.97;;;9.00;99.90;;;;;;5044018;28;20032;-71
2021/11/18 08:53:13;;;;;;;25.02;6.15;;;9.00;99.90;;;;;;5057782;28;20047;-72
2021/11/18 08:55:41;;;;;;;19.70;6.88;;;9.10;99.90;;;;;;5049966;28;20090;-72
2021/11/18 08:58:10;;;;;;;21.45;6.57;;;9.10;99.90;;;;;;5051139;28;20550;-72
2021/11/18 09:00:49;;;;;;;30.50;7.47;;;9.10;99.90;;;;;;5068169;28;20044;-72
2021/11/18 09:03:18;;;;;;;21.98;6.03;;;9.10;99.90;;;;;;5050703;28;20048;-71
2021/11/18 09:05:45;;;;;;;26.77;6.88;;;9.10;99.90;;;;;;5054769;28;20054;-71
2021/11/18 09:08:10;;;;;;;20.15;6.63;;;9.20;99.90;;;;;;5067666;28;20049;-72
2021/11/18 09:10:38;;;;;;;29.05;7.22;;;9.10;99.90;;;;;;5058139;28;20134;-71
2021/11/18 09:13:06;;;;;;;27.63;7.15;;;9.20;99.90;;;;;;5070892;28;20033;-71
2021/11/18 09:15:33;;;;;;;25.10;6.75;;;9.20;99.90;;;;;;5065301;28;20071;-71
2021/11/18 09:17:59;;;;;;;23.42;7.00;;;9.20;99.90;;;;;;5059644;28;20063;-71
2021/11/18 09:20:26;;;;;;;20.20;6.47;;;9.30;99.90;;;;;;5060573;28;20556;-72
2021/11/18 09:22:57;;;;;;;25.63;6.85;;;9.20;99.90;;;;;;5061228;28;20418;-72
2021/11/18 09:25:28;;;;;;;23.02;6.97;;;9.30;99.90;;;;;;5060022;28;20050;-71
2021/11/18 09:27:57;;;;;;;20.67;6.68;;;9.30;99.90;;;;;;5068951;28;20040;-71
2021/11/18 09:30:25;;;;;;;22.98;6.40;;;9.30;99.90;;;;;;5050302;28;20438;-71
2021/11/18 09:32:52;;;;;;;22.77;7.10;;;9.30;99.90;;;;;;5080919;28;20036;-70
2021/11/18 09:35:23;;;;;;;26.58;6.68;;;9.40;99.90;;;;;;5085655;28;20040;-72
2021/11/18 09:37:49;;;;;;;22.40;7.93;;;9.40;99.90;;;;;;5080487;28;20221;-71
2021/11/18 09:40:22;;;;;;;25.90;5.97;;;9.40;99.90;;;;;;5066819;28;20563;-71
2021/11/18 09:43:15;;;;;;;18.42;5.95;;;9.40;99.90;;;;;;5068339;28;20076;-71
2021/11/18 09:45:52;;;;;;;22.67;6.53;;;9.50;99.90;;;;;;5069990;28;20067;-71
2021/11/18 09:48:36;;;;;;;24.73;6.43;;;9.60;99.90;;;;;;5056430;28;20044;-71
2021/11/18 09:51:47;;;;;;;20.65;6.57;;;9.60;99.90;;;;;;5080767;28;20765;-72
2021/11/18 09:54:20;;;;;;;24.40;6.70;;;9.70;99.90;;;;;;5065826;28;20056;-71
2021/11/18 09:57:11;;;;;;;20.33;6.53;;;9.80;99.90;;;;;;5052637;28;20044;-72
2021/11/18 10:00:08;;;;;;;28.27;8.13;;;9.90;99.90;;;;;;5057529;28;20121;-71
2021/11/18 10:02:57;;;;;;;21.95;6.28;;;9.90;99.90;;;;;;5068860;28;20138;-71
2021/11/18 10:05:32;;;;;;;20.08;5.70;;;9.90;99.90;;;;;;5053947;28;20049;-72
2021/11/18 10:08:05;;;;;;;22.50;6.35;;;10.00;99.90;;;;;;5063242;28;20402;-72
2021/11/18 10:11:12;;;;;;;22.85;6.40;;;10.10;99.90;;;;;;5074495;28;20045;-71
2021/11/18 10:14:01;;;;;;;22.33;7.38;;;10.20;99.90;;;;;;5053454;28;20075;-71
2021/11/18 10:16:33;;;;;;;23.30;6.05;;;10.30;99.90;;;;;;5066701;28;20419;-72
2021/11/18 10:19:06;;;;;;;22.58;6.38;;;10.30;99.90;;;;;;5050275;28;20048;-71
2021/11/18 10:21:35;;;;;;;27.35;7.47;;;10.40;99.90;;;;;;5077323;28;20098;-71
2021/11/18 10:24:19;;;;;;;27.48;6.20;;;10.40;99.90;;;;;;5064241;28;20109;-71
2021/11/18 10:26:56;;;;;;;19.10;5.50;;;10.40;99.90;;;;;;5066807;28;20368;-72
2021/11/18 10:29:25;;;;;;;24.55;5.90;;;10.50;99.90;;;;;;5068530;28;20049;-71
2021/11/18 10:32:09;;;;;;;20.42;5.75;;;10.50;99.90;;;;;;5074203;28;20486;-72
2021/11/18 10:34:54;;;;;;;20.33;5.63;;;10.50;99.90;;;;;;5067428;28;20072;-73
2021/11/18 10:37:27;;;;;;;26.90;6.40;;;10.60;99.90;;;;;;5051714;28;20055;-71
2021/11/18 10:40:11;;;;;;;23.02;5.60;;;10.60;99.90;;;;;;5069264;28;20044;-73
2021/11/18 10:42:50;;;;;;;27.48;5.60;;;10.70;99.90;;;;;;5071744;28;20139;-71
2021/11/18 10:45:40;;;;;;;22.25;6.03;;;10.70;99.90;;;;;;5053753;28;20048;-71
2021/11/18 10:48:33;;;;;;;20.87;5.73;;;10.80;99.90;;;;;;5053755;28;20359;-71
2021/11/18 10:51:06;;;;;;;20.50;5.80;;;10.90;99.90;;;;;;5063582;28;20378;-71
2021/11/18 10:53:54;;;;;;;21.85;4.80;;;10.90;99.90;;;;;;5082772;28;20555;-72
2021/11/18 10:56:43;;;;;;;23.17;5.85;;;10.90;99.90;;;;;;5072286;28;20391;-71
2021/11/18 10:59:13;;;;;;;21.55;5.22;;;11.00;99.90;;;;;;5067658;28;20040;-72
2021/11/18 11:01:45;;;;;;;18.73;5.03;;;10.90;99.90;;;;;;5068044;28;20049;-73
2021/11/18 11:04:33;;;;;;;23.80;5.32;;;11.00;99.90;;;;;;5064642;28;20212;-72
2021/11/18 11:06:59;;;;;;;19.40;5.35;;;11.00;99.90;;;;;;5048805;28;20522;-71
2021/11/18 11:09:38;;;;;;;19.10;4.78;;;11.00;99.90;;;;;;5047704;28;20056;-71
2021/11/18 11:12:08;;;;;;;19.08;4.80;;;11.10;99.90;;;;;;5064513;28;20100;-71
2021/11/18 11:15:09;;;;;;;26.63;6.45;;;11.10;99.90;;;;;;5065388;28;20076;-71
2021/11/18 11:17:45;;;;;;;16.25;4.63;;;11.20;99.90;;;;;;5071239;28;20048;-72
2021/11/18 11:20:16;;;;;;;21.75;4.60;;;11.20;99.90;;;;;;5070229;28;20062;-72
2021/11/18 11:22:48;;;;;;;21.98;5.13;;;11.30;99.90;;;;;;5072021;28;20359;-71
2021/11/18 11:25:52;;;;;;;23.30;5.25;;;11.30;99.90;;;;;;5064065;28;20666;-71
2021/11/18 11:28:45;;;;;;;22.02;4.57;;;11.40;99.90;;;;;;5067117;28;20415;-71
2021/11/18 11:31:14;;;;;;;23.15;5.22;;;11.50;99.90;;;;;;5072612;28;20032;-72
2021/11/18 11:33:49;;;;;;;24.65;6.15;;;11.50;99.90;;;;;;5072708;28;20052;-72
2021/11/18 11:36:30;;;;;;;26.77;5.93;;;11.50;99.90;;;;;;5070696;28;20055;-71
2021/11/18 11:39:31;;;;;;;19.45;6.63;;;11.60;99.90;;;;;;5059239;28;20396;-71
2021/11/18 11:42:47;;;;;;;22.25;5.68;;;11.50;99.90;;;;;;5075412;28;20139;-71
2021/11/18 11:45:41;;;;;;;27.63;6.10;;;11.50;99.90;;;;;;5059824;28;20051;-72
2021/11/18 11:48:12;;;;;;;25.88;6.55;;;11.50;99.90;;;;;;5064680;28;20449;-71
2021/11/18 11:50:51;;;;;;;22.90;6.20;;;11.40;99.90;;;;;;5064004;28;20059;-72
2021/11/18 11:53:38;;;;;;;20.20;6.07;;;11.40;99.90;;;;;;5070314;28;20044;-71
2021/11/18 11:56:07;;;;;;;28.80;6.93;;;11.40;99.90;;;;;;5070876;28;20051;-72
2021/11/18 11:58:45;;;;;;;24.58;5.40;;;11.40;99.90;;;;;;5063557;28;20043;-72
2021/11/18 12:01:32;;;;;;;25.13;6.47;;;11.40;99.90;;;;;;5070229;28;20130;-71
2021/11/18 12:04:31;;;;;;;19.85;5.70;;;11.50;99.90;;;;;;5087428;28;20134;-73
2021/11/18 12:07:36;;;;;;;16.87;5.10;;;11.50;99.90;;;;;;5067520;28;20300;-71
2021/11/18 12:10:30;;;;;;;24.15;5.90;;;11.60;99.90;;;;;;5050258;28;20040;-71
2021/11/18 12:13:28;;;;;;;21.20;5.00;;;11.60;99.90;;;;;;5067406;28;20410;-72
2021/11/18 12:16:09;;;;;;;24.33;6.15;;;11.60;99.90;;;;;;5015856;28;20487;-71
2021/11/18 12:18:44;;;;;;;22.73;5.80;;;11.60;99.90;;;;;;5061851;28;20052;-72
2021/11/18 12:21:10;;;;;;;21.10;5.85;;;11.60;99.90;;;;;;5066931;28;20048;-71
2021/11/18 12:24:15;;;;;;;21.88;5.38;;;11.60;99.90;;;;;;5068087;28;20502;-70
2021/11/18 12:26:53;;;;;;;22.88;5.53;;;11.60;99.90;;;;;;5069975;28;20443;-71
2021/11/18 12:29:37;;;;;;;27.73;6.18;;;11.60;99.90;;;;;;5068107;28;20055;-72
2021/11/18 12:32:09;;;;;;;24.17;5.47;;;11.60;99.90;;;;;;5070906;28;20072;-71
2021/11/18 12:34:56;;;;;;;20.30;5.78;;;11.50;99.90;;;;;;5050653;28;20052;-71
2021/11/18 12:37:56;;;;;;;21.10;5.68;;;11.60;99.90;;;;;;5063593;28;20515;-72
2021/11/18 12:41:07;;;;;;;24.23;6.15;;;11.50;99.90;;;;;;5066745;28;20059;-72
2021/11/18 12:44:01;;;;;;;20.23;6.25;;;11.50;99.90;;;;;;5057512;28;20040;-72
2021/11/18 12:46:53;;;;;;;23.98;5.95;;;11.50;99.90;;;;;;5077491;28;20051;-72
2021/11/18 12:49:37;;;;;;;22.40;6.20;;;11.50;99.90;;;;;;5058257;28;20049;-73
2021/11/18 12:52:12;;;;;;;25.00;6.00;;;11.40;99.90;;;;;;5066371;28;20130;-72
2021/11/18 12:54:47;;;;;;;19.50;6.30;;;11.50;99.90;;;;;;5066168;28;20052;-73
2021/11/18 12:57:30;;;;;;;22.92;6.22;;;11.50;99.90;;;;;;5083566;28;20559;-72
2021/11/18 13:00:21;;;;;;;26.23;6.65;;;11.50;99.90;;;;;;5066668;28;20052;-72
2021/11/18 13:02:58;;;;;;;21.00;6.32;;;11.50;99.90;;;;;;5036961;28;20109;-72
2021/11/18 13:05:30;;;;;;;26.70;6.57;;;11.50;99.90;;;;;;5052161;28;20539;-72